Time;durP1;ratioP1;P1;durP2;ratioP2;P2;SDS_P1;SDS_P2;PMS_P1;PMS_P2;Temp;Humidity;BMP_temperature;BMP_pressure;BME280_temperature;BME280_humidity;BME280_pressure;Samples;Min_cycle;Max_cycle;Signal;HPM_P1;HPM_P2
2021/05/19 00:00:39;;;;;;;2.72;2.13;;;;;;;8.70;nan;100530.47;5071002;28;20024;-72
2021/05/19 00:03:04;;;;;;;2.75;1.92;;;;;;;8.66;nan;100531.72;5064095;28;20043;-72
2021/05/19 00:05:30;;;;;;;2.40;1.92;;;;;;;8.61;nan;100533.94;5044204;28;20501;-72
2021/05/19 00:07:55;;;;;;;2.45;1.80;;;;;;;8.63;nan;100532.00;5064451;28;20060;-72
2021/05/19 00:10:21;;;;;;;3.60;2.60;;;;;;;8.58;nan;100530.72;5061536;28;20297;-72
2021/05/19 00:12:46;;;;;;;3.25;2.45;;;;;;;8.59;nan;100524.50;5066573;28;20520;-72
2021/05/19 00:15:11;;;;;;;2.67;2.08;;;;;;;8.60;nan;100526.16;5068166;28;20090;-72
2021/05/19 00:17:42;;;;;;;3.83;2.60;;;;;;;8.57;nan;100526.44;5071018;28;20040;-72
2021/05/19 00:20:08;;;;;;;3.42;2.53;;;;;;;8.56;nan;100524.78;5062332;28;20036;-73
2021/05/19 00:22:33;;;;;;;3.28;2.50;;;;;;;8.52;nan;100529.50;5042941;28;20035;-72
2021/05/19 00:24:58;;;;;;;2.70;2.25;;;;;;;8.47;nan;100529.91;5068246;28;20460;-72
2021/05/19 00:27:24;;;;;;;4.18;2.25;;;;;;;8.52;nan;100526.88;5067974;28;20047;-72
2021/05/19 00:29:50;;;;;;;2.63;2.10;;;;;;;8.56;nan;100532.69;5083227;28;20044;-72
2021/05/19 00:32:16;;;;;;;2.70;2.00;;;;;;;8.58;nan;100530.72;5061816;28;20032;-72
2021/05/19 00:34:41;;;;;;;2.47;1.80;;;;;;;8.59;nan;100522.69;5056700;28;20039;-72
2021/05/19 00:37:06;;;;;;;3.03;2.30;;;;;;;8.59;nan;100527.97;5064905;28;20121;-72
2021/05/19 00:39:32;;;;;;;4.88;2.80;;;;;;;8.61;nan;100518.13;5059689;28;20044;-72
2021/05/19 00:41:57;;;;;;;3.38;2.55;;;;;;;8.57;nan;100521.19;5046008;28;20382;-71
2021/05/19 00:44:22;;;;;;;3.60;2.85;;;;;;;8.52;nan;100528.66;5049236;28;20115;-72
2021/05/19 00:46:48;;;;;;;4.05;2.92;;;;;;;8.52;nan;100528.66;5059636;28;20101;-72
2021/05/19 00:49:14;;;;;;;3.53;2.58;;;;;;;8.55;nan;100523.13;5049160;28;20254;-72
2021/05/19 00:51:40;;;;;;;3.78;2.40;;;;;;;8.61;nan;100522.56;5063540;28;20032;-72
2021/05/19 00:54:05;;;;;;;3.75;3.00;;;;;;;8.67;nan;100516.72;5064777;28;20047;-74
2021/05/19 00:56:31;;;;;;;3.40;2.58;;;;;;;8.65;nan;100516.88;5061310;28;20051;-72
2021/05/19 00:59:00;;;;;;;2.75;2.10;;;;;;;8.65;nan;100518.66;5065082;28;20039;-72
2021/05/19 01:01:26;;;;;;;3.88;2.47;;;;;;;8.65;nan;100519.53;5044615;28;20083;-72
2021/05/19 01:03:52;;;;;;;2.92;2.17;;;;;;;8.67;nan;100511.44;5064626;28;20513;-72
2021/05/19 01:06:31;;;;;;;3.03;1.98;;;;;;;8.64;nan;100509.94;5066515;28;20040;-72
2021/05/19 01:11:40;;;;;;;3.33;2.40;;;;;;;8.53;nan;100509.25;5058833;28;20458;-73
2021/05/19 01:14:05;;;;;;;3.17;2.22;;;;;;;8.50;nan;100502.44;5077524;28;20032;-74
2021/05/19 01:16:31;;;;;;;3.33;2.60;;;;;;;8.52;nan;100510.22;5067868;28;20051;-72
2021/05/19 01:18:56;;;;;;;3.70;2.78;;;;;;;8.49;nan;100508.69;5075338;28;20187;-72
2021/05/19 01:21:23;;;;;;;3.50;2.60;;;;;;;8.48;nan;100510.47;5080969;28;20081;-72
2021/05/19 01:23:49;;;;;;;3.25;2.55;;;;;;;8.50;nan;100519.09;5085549;28;20442;-73
2021/05/19 01:26:14;;;;;;;3.65;3.10;;;;;;;8.53;nan;100528.50;5084701;28;20572;-73
2021/05/19 01:28:41;;;;;;;5.32;4.30;;;;;;;8.58;nan;100522.84;5086892;28;20127;-72
2021/05/19 01:31:09;;;;;;;5.75;4.30;;;;;;;8.59;nan;100517.44;5067250;28;20059;-72
2021/05/19 01:33:35;;;;;;;4.82;3.92;;;;;;;8.54;nan;100516.19;5080996;28;20089;-72
2021/05/19 01:36:00;;;;;;;4.10;3.20;;;;;;;8.53;nan;100515.34;5074056;28;20421;-72
2021/05/19 01:38:25;;;;;;;5.13;4.22;;;;;;;8.53;nan;100520.59;5084346;28;20510;-72
2021/05/19 01:40:51;;;;;;;5.45;4.00;;;;;;;8.54;nan;100519.66;5065679;28;20523;-72
2021/05/19 01:43:16;;;;;;;6.55;4.32;;;;;;;8.55;nan;100523.13;5086598;28;20073;-72
2021/05/19 01:45:41;;;;;;;4.25;3.78;;;;;;;8.59;nan;100516.59;5088510;28;20032;-72
2021/05/19 01:48:13;;;;;;;5.13;4.15;;;;;;;8.58;nan;100518.41;5087260;28;20485;-73
2021/05/19 01:50:38;;;;;;;5.32;4.13;;;;;;;8.55;nan;100518.66;5058993;28;20040;-72
2021/05/19 01:53:04;;;;;;;4.97;4.22;;;;;;;8.53;nan;100515.34;5083254;28;20170;-72
2021/05/19 01:55:30;;;;;;;4.32;3.40;;;;;;;8.50;nan;100516.44;5076580;28;20221;-72
2021/05/19 01:57:56;;;;;;;4.53;3.20;;;;;;;8.52;nan;100524.22;5068423;28;20036;-72
2021/05/19 02:00:25;;;;;;;3.42;2.85;;;;;;;8.51;nan;100512.03;5086469;28;20562;-72
2021/05/19 02:02:56;;;;;;;3.85;3.22;;;;;;;8.50;nan;100527.00;5094921;28;20081;-73
2021/05/19 02:05:24;;;;;;;4.07;3.17;;;;;;;8.51;nan;100527.84;5083087;28;20032;-72
2021/05/19 02:07:49;;;;;;;4.40;3.45;;;;;;;8.50;nan;100527.00;5081528;28;20060;-72
2021/05/19 02:10:15;;;;;;;4.30;3.60;;;;;;;8.43;nan;100522.41;5079131;28;20063;-72
2021/05/19 02:12:40;;;;;;;5.68;4.43;;;;;;;8.33;nan;100524.19;5060951;28;20029;-72
2021/05/19 02:15:07;;;;;;;5.88;4.88;;;;;;;8.22;nan;100520.72;5072464;28;20044;-72
2021/05/19 02:17:32;;;;;;;5.20;4.18;;;;;;;8.17;nan;100519.44;5072311;28;20036;-72
2021/05/19 02:20:12;;;;;;;5.57;4.10;;;;;;;8.12;nan;100530.38;5072184;28;20029;-72
2021/05/19 02:22:39;;;;;;;4.97;3.90;;;;;;;8.02;nan;100530.38;5068524;28;20055;-72
2021/05/19 02:25:06;;;;;;;4.70;3.50;;;;;;;7.94;nan;100530.22;5074294;28;20035;-72
2021/05/19 02:27:32;;;;;;;4.25;3.50;;;;;;;7.92;nan;100539.22;5090144;28;20115;-72
2021/05/19 02:29:57;;;;;;;4.25;3.20;;;;;;;7.90;nan;100533.25;5091007;28;20708;-72
2021/05/19 02:32:25;;;;;;;4.13;3.25;;;;;;;7.91;nan;100530.47;5067188;28;20088;-71
2021/05/19 02:34:50;;;;;;;4.03;2.95;;;;;;;7.87;nan;100534.34;5065827;28;20074;-72
2021/05/19 02:37:16;;;;;;;4.80;3.78;;;;;;;7.90;nan;100534.09;5052218;28;20111;-72
2021/05/19 02:39:41;;;;;;;3.65;2.90;;;;;;;7.89;nan;100527.16;5068521;28;20441;-72
2021/05/19 02:42:07;;;;;;;4.57;3.60;;;;;;;7.83;nan;100536.41;5067967;28;20123;-73
2021/05/19 02:44:32;;;;;;;3.67;3.08;;;;;;;7.82;nan;100533.94;5069143;28;20123;-72
2021/05/19 02:46:58;;;;;;;4.43;3.60;;;;;;;7.73;nan;100540.00;5059398;28;20028;-72
2021/05/19 02:49:23;;;;;;;4.80;3.72;;;;;;;7.68;nan;100531.66;5072520;28;20512;-72
2021/05/19 02:51:49;;;;;;;4.20;3.60;;;;;;;7.62;nan;100531.19;5080069;28;20063;-72
2021/05/19 02:54:14;;;;;;;4.97;4.05;;;;;;;7.62;nan;100530.38;5070463;28;20489;-72
2021/05/19 02:56:39;;;;;;;6.50;4.45;;;;;;;7.60;nan;100527.03;5069046;28;20385;-72
2021/05/19 02:59:05;;;;;;;3.90;3.08;;;;;;;7.54;nan;100530.22;5071665;28;20501;-72
2021/05/19 03:01:30;;;;;;;4.05;3.40;;;;;;;7.44;nan;100533.63;5066298;28;20040;-72
2021/05/19 03:03:56;;;;;;;4.60;3.67;;;;;;;7.37;nan;100531.66;5063634;28;20078;-72
2021/05/19 03:06:25;;;;;;;4.82;3.92;;;;;;;7.35;nan;100533.59;5064635;28;20107;-72
2021/05/19 03:08:51;;;;;;;4.85;3.75;;;;;;;7.30;nan;100544.50;5073873;28;20400;-73
2021/05/19 03:11:17;;;;;;;5.35;4.07;;;;;;;7.25;nan;100544.06;5076256;28;20438;-72
2021/05/19 03:13:42;;;;;;;5.13;4.15;;;;;;;7.24;nan;100547.63;5071569;28;20058;-72
2021/05/19 03:16:08;;;;;;;6.00;4.25;;;;;;;7.22;nan;100554.81;5068452;28;20033;-73
2021/05/19 03:18:34;;;;;;;5.63;4.57;;;;;;;7.16;nan;100553.56;5068884;28;20052;-72
2021/05/19 03:21:01;;;;;;;6.03;4.65;;;;;;;7.07;nan;100561.38;5060479;28;20072;-72
2021/05/19 03:23:27;;;;;;;5.40;4.20;;;;;;;7.05;nan;100565.94;5066149;28;20493;-72
2021/05/19 03:25:52;;;;;;;6.05;4.35;;;;;;;7.02;nan;100561.75;5066987;28;20044;-72
2021/05/19 03:28:17;;;;;;;5.60;4.75;;;;;;;6.97;nan;100574.47;5053003;28;20082;-72
2021/05/19 03:30:43;;;;;;;5.70;4.28;;;;;;;6.99;nan;100570.75;5063106;28;20263;-72
2021/05/19 03:33:08;;;;;;;5.60;4.10;;;;;;;7.00;nan;100574.19;5048827;28;20032;-72
2021/05/19 03:35:34;;;;;;;4.30;3.50;;;;;;;7.04;nan;100569.53;5064384;28;20517;-72
2021/05/19 03:38:00;;;;;;;3.83;2.90;;;;;;;7.09;nan;100578.69;5086585;28;20085;-72
2021/05/19 03:40:25;;;;;;;5.10;4.20;;;;;;;7.09;nan;100580.50;5089366;28;20492;-72
2021/05/19 03:42:50;;;;;;;4.53;3.47;;;;;;;7.12;nan;100586.31;5090709;28;20036;-72
2021/05/19 03:45:19;;;;;;;4.18;3.53;;;;;;;7.12;nan;100590.75;5077133;28;20041;-72
2021/05/19 03:47:47;;;;;;;4.32;3.75;;;;;;;7.08;nan;100592.81;5082458;28;20028;-72
2021/05/19 03:50:13;;;;;;;5.22;4.07;;;;;;;7.02;nan;100591.50;5057662;28;20037;-73
2021/05/19 03:52:38;;;;;;;3.92;3.17;;;;;;;6.99;nan;100602.28;5068135;28;20044;-72
2021/05/19 03:55:06;;;;;;;5.03;3.90;;;;;;;7.00;nan;100603.13;5062716;28;20569;-72
2021/05/19 03:57:32;;;;;;;4.85;3.83;;;;;;;7.06;nan;100594.72;5083068;28;20028;-72
2021/05/19 03:59:57;;;;;;;5.25;4.00;;;;;;;7.16;nan;100594.81;5084676;28;20032;-72
2021/05/19 04:02:22;;;;;;;6.43;4.65;;;;;;;7.18;nan;100603.41;5088635;28;20043;-72
2021/05/19 04:04:48;;;;;;;5.53;3.90;;;;;;;7.19;nan;100607.69;5088823;28;20032;-72
2021/05/19 04:07:14;;;;;;;4.43;3.88;;;;;;;7.19;nan;100605.88;5060187;28;20048;-73
2021/05/19 04:09:40;;;;;;;6.43;4.55;;;;;;;7.25;nan;100609.00;5080203;28;20032;-72
2021/05/19 04:12:05;;;;;;;5.63;4.32;;;;;;;7.30;nan;100609.44;5087489;28;20377;-73
2021/05/19 04:14:31;;;;;;;5.68;4.40;;;;;;;7.28;nan;100606.09;5083795;28;20032;-72
2021/05/19 04:16:56;;;;;;;5.50;3.92;;;;;;;7.28;nan;100606.91;5080946;28;20496;-72
2021/05/19 04:19:21;;;;;;;3.97;3.10;;;;;;;7.36;nan;100612.34;5088402;28;20093;-72
2021/05/19 04:21:47;;;;;;;5.47;3.80;;;;;;;7.42;nan;100613.66;5087146;28;20031;-72
2021/05/19 04:24:12;;;;;;;5.00;4.07;;;;;;;7.40;nan;100619.03;5081318;28;20449;-73
2021/05/19 04:26:38;;;;;;;4.70;3.92;;;;;;;7.40;nan;100610.31;5063313;28;20409;-72
2021/05/19 04:29:03;;;;;;;5.40;4.35;;;;;;;7.38;nan;100609.59;5045791;28;20086;-72
2021/05/19 04:31:30;;;;;;;4.40;3.72;;;;;;;7.46;nan;100604.56;5079563;28;20036;-72
2021/05/19 04:33:55;;;;;;;4.35;3.60;;;;;;;7.53;nan;100605.69;5088801;28;20078;-72
2021/05/19 04:36:20;;;;;;;3.97;2.95;;;;;;;7.60;nan;100609.47;5080062;28;20048;-72
2021/05/19 04:38:45;;;;;;;3.80;3.10;;;;;;;7.64;nan;100607.41;5059877;28;20416;-72
2021/05/19 04:41:11;;;;;;;4.82;3.63;;;;;;;7.65;nan;100609.06;5086067;28;20266;-72
2021/05/19 04:43:36;;;;;;;4.13;3.50;;;;;;;7.66;nan;100611.56;5084403;28;20040;-72
2021/05/19 04:46:02;;;;;;;5.00;3.10;;;;;;;7.69;nan;100621.00;5081174;28;20036;-72
2021/05/19 04:48:27;;;;;;;3.30;2.67;;;;;;;7.79;nan;100621.03;5049006;28;20329;-72
2021/05/19 04:50:53;;;;;;;3.42;2.78;;;;;;;7.84;nan;100619.72;5063337;28;20093;-72
2021/05/19 04:53:19;;;;;;;3.33;2.38;;;;;;;7.91;nan;100622.63;5050321;28;20032;-72
2021/05/19 04:55:44;;;;;;;4.22;2.70;;;;;;;7.94;nan;100626.81;5064391;28;20508;-72
2021/05/19 04:58:10;;;;;;;3.08;2.50;;;;;;;7.96;nan;100632.75;5064047;28;20036;-73
2021/05/19 05:00:38;;;;;;;4.13;3.08;;;;;;;8.01;nan;100639.31;5063772;28;20040;-72
2021/05/19 05:03:08;;;;;;;3.75;3.05;;;;;;;8.07;nan;100644.03;5062917;28;20040;-73
2021/05/19 05:05:33;;;;;;;3.33;2.60;;;;;;;8.17;nan;100644.06;5061823;28;20207;-72
2021/05/19 05:07:58;;;;;;;3.67;2.40;;;;;;;8.32;nan;100639.28;5063180;28;20020;-72
2021/05/19 05:10:24;;;;;;;2.95;2.33;;;;;;;8.48;nan;100642.25;5065678;28;20064;-72
2021/05/19 05:12:50;;;;;;;6.40;4.50;;;;;;;8.66;nan;100641.59;5046885;28;20098;-73
2021/05/19 05:15:18;;;;;;;6.28;4.25;;;;;;;8.83;nan;100650.63;5061623;28;20037;-72
2021/05/19 05:17:43;;;;;;;7.40;5.10;;;;;;;9.01;nan;100648.13;5060135;28;20133;-72
2021/05/19 05:20:10;;;;;;;6.50;4.35;;;;;;;9.07;nan;100661.63;5066803;28;20436;-73
2021/05/19 05:22:36;;;;;;;6.70;5.28;;;;;;;9.24;nan;100661.88;5046969;28;20033;-73
2021/05/19 05:25:03;;;;;;;6.10;4.72;;;;;;;9.42;nan;100659.38;5072690;28;20033;-72
2021/05/19 05:27:29;;;;;;;8.30;4.90;;;;;;;9.63;nan;100661.81;5047130;28;20513;-72
2021/05/19 05:29:54;;;;;;;5.93;4.13;;;;;;;9.61;nan;100661.16;5059679;28;20043;-72
2021/05/19 05:32:19;;;;;;;6.63;4.63;;;;;;;9.72;nan;100668.91;5061874;28;20366;-73
2021/05/19 05:34:45;;;;;;;6.65;4.38;;;;;;;9.87;nan;100675.41;5050868;28;20116;-72
2021/05/19 05:37:10;;;;;;;6.30;4.10;;;;;;;9.95;nan;100669.41;5062032;28;20283;-72
2021/05/19 05:39:35;;;;;;;5.60;4.18;;;;;;;10.07;nan;100672.69;5071880;28;20052;-73
2021/05/19 05:42:01;;;;;;;7.03;4.18;;;;;;;10.23;nan;100675.56;5071002;28;20138;-72
2021/05/19 05:44:26;;;;;;;6.45;4.05;;;;;;;10.23;nan;100686.13;5070043;28;20519;-73
2021/05/19 05:46:51;;;;;;;5.00;4.05;;;;;;;9.99;nan;100678.72;5073101;28;20033;-73
2021/05/19 05:49:17;;;;;;;4.45;3.13;;;;;;;10.09;nan;100671.56;5074885;28;20048;-73
2021/05/19 05:51:42;;;;;;;5.60;3.70;;;;;;;10.09;nan;100668.09;5091573;28;20036;-72
2021/05/19 05:54:07;;;;;;;5.35;4.07;;;;;;;10.20;nan;100675.81;5092629;28;20115;-73
2021/05/19 05:56:33;;;;;;;6.50;4.25;;;;;;;10.24;nan;100669.28;5078163;28;20076;-72
2021/05/19 05:58:59;;;;;;;6.03;4.50;;;;;;;10.30;nan;100670.56;5072048;28;20078;-72
2021/05/19 06:01:24;;;;;;;7.10;4.15;;;;;;;10.36;nan;100659.38;5064662;28;20040;-72
2021/05/19 06:03:49;;;;;;;7.22;5.28;;;;;;;10.30;nan;100663.47;5071755;28;20033;-72
2021/05/19 06:06:15;;;;;;;6.05;4.90;;;;;;;10.23;nan;100665.00;5072072;28;20044;-72
2021/05/19 06:08:40;;;;;;;6.35;5.35;;;;;;;10.20;nan;100660.81;5071553;28;20060;-72
2021/05/19 06:11:07;;;;;;;7.55;5.15;;;;;;;10.05;nan;100672.00;5069707;28;20060;-72
2021/05/19 06:13:33;;;;;;;6.07;5.35;;;;;;;9.98;nan;100666.47;5052993;28;20016;-72
2021/05/19 06:15:58;;;;;;;7.07;5.80;;;;;;;9.97;nan;100676.22;5066749;28;20094;-72
2021/05/19 06:18:24;;;;;;;6.88;5.22;;;;;;;9.99;nan;100668.97;5084575;28;20127;-72
2021/05/19 06:20:49;;;;;;;6.85;5.78;;;;;;;9.98;nan;100677.84;5066394;28;20029;-72
2021/05/19 06:23:15;;;;;;;8.90;6.35;;;;;;;9.87;nan;100678.06;5083541;28;20040;-73
2021/05/19 06:25:40;;;;;;;7.50;5.43;;;;;;;9.83;nan;100679.31;5068281;28;20032;-72
2021/05/19 06:28:05;;;;;;;7.20;5.03;;;;;;;9.85;nan;100687.09;5066238;28;20036;-73
2021/05/19 06:30:30;;;;;;;6.85;5.18;;;;;;;9.97;nan;100699.16;5068692;28;20185;-72
2021/05/19 06:32:56;;;;;;;5.82;4.90;;;;;;;10.33;nan;100697.50;5052847;28;20028;-73
2021/05/19 06:35:21;;;;;;;7.20;5.35;;;;;;;10.94;nan;100685.50;5067628;28;20048;-72
2021/05/19 06:37:47;;;;;;;6.47;4.95;;;;;;;11.25;nan;100693.88;5070382;28;20040;-72
2021/05/19 06:40:12;;;;;;;7.55;5.25;;;;;;;11.65;nan;100697.81;5067439;28;20032;-71
2021/05/19 06:42:38;;;;;;;6.28;4.75;;;;;;;11.78;nan;100693.97;5062982;28;20119;-72
2021/05/19 06:45:04;;;;;;;7.30;4.70;;;;;;;11.99;nan;100698.91;5065471;28;20121;-73
2021/05/19 06:47:29;;;;;;;7.00;5.03;;;;;;;12.02;nan;100691.47;5067466;28;20039;-72
2021/05/19 06:49:54;;;;;;;6.38;5.13;;;;;;;11.85;nan;100692.34;5065289;28;20037;-72
2021/05/19 06:52:21;;;;;;;5.93;4.68;;;;;;;11.82;nan;100697.94;5083895;28;20493;-72
2021/05/19 06:54:48;;;;;;;8.40;5.38;;;;;;;11.70;nan;100697.34;5049666;28;20111;-72
2021/05/19 06:57:13;;;;;;;7.75;5.88;;;;;;;11.64;nan;100690.88;5049334;28;20174;-71
2021/05/19 06:59:38;;;;;;;7.13;5.20;;;;;;;11.65;nan;100694.34;5070149;28;20536;-72
2021/05/19 07:02:04;;;;;;;5.82;4.82;;;;;;;11.53;nan;100695.59;5069001;28;20040;-72
2021/05/19 07:04:29;;;;;;;7.78;5.28;;;;;;;11.55;nan;100699.75;5064866;28;20170;-72
2021/05/19 07:06:54;;;;;;;7.30;5.10;;;;;;;11.45;nan;100699.00;5083584;28;20025;-72
2021/05/19 07:09:20;;;;;;;7.10;5.03;;;;;;;11.74;nan;100703.19;5067862;28;20556;-72
2021/05/19 07:11:46;;;;;;;5.75;4.72;;;;;;;12.39;nan;100705.41;5051457;28;20040;-72
2021/05/19 07:14:16;;;;;;;6.18;5.13;;;;;;;12.88;nan;100706.41;5070326;28;20366;-72
2021/05/19 07:16:53;;;;;;;6.03;4.05;;;;;;;13.43;nan;100712.16;5067659;28;20036;-72
2021/05/19 07:19:20;;;;;;;5.65;4.28;;;;;;;13.69;nan;100718.13;5068334;28;20035;-73
2021/05/19 07:21:46;;;;;;;6.00;4.05;;;;;;;13.87;nan;100717.09;5046682;28;20512;-73
2021/05/19 07:24:12;;;;;;;6.18;4.95;;;;;;;14.28;nan;100720.50;5068651;28;20047;-73
2021/05/19 07:26:39;;;;;;;6.18;4.60;;;;;;;14.24;nan;100713.84;5065414;28;20254;-73
2021/05/19 07:29:05;;;;;;;6.15;4.53;;;;;;;14.12;nan;100713.41;5069454;28;20068;-73
2021/05/19 07:31:31;;;;;;;5.97;4.10;;;;;;;14.28;nan;100707.19;5062989;28;20075;-73
2021/05/19 07:33:56;;;;;;;5.53;3.90;;;;;;;14.27;nan;100710.03;5070799;28;20450;-72
2021/05/19 07:36:22;;;;;;;5.68;3.95;;;;;;;14.10;nan;100712.72;5067570;28;20123;-73
2021/05/19 07:38:47;;;;;;;5.15;4.13;;;;;;;13.77;nan;100719.94;5080574;28;20509;-72
2021/05/19 07:41:13;;;;;;;4.60;3.33;;;;;;;13.37;nan;100716.28;5064719;28;20051;-72
2021/05/19 07:43:38;;;;;;;4.63;3.83;;;;;;;13.27;nan;100721.75;5068191;28;20068;-72
2021/05/19 07:46:03;;;;;;;5.28;4.05;;;;;;;13.45;nan;100726.09;5062939;28;20144;-72
2021/05/19 07:48:29;;;;;;;6.32;4.40;;;;;;;14.88;nan;100727.09;5047879;28;20042;-72
2021/05/19 07:50:54;;;;;;;4.07;2.95;;;;;;;15.39;nan;100726.59;5068913;28;20028;-72
2021/05/19 07:53:19;;;;;;;5.03;3.60;;;;;;;15.00;nan;100722.19;5065789;28;20062;-73
2021/05/19 07:58:48;;;;;;;5.47;3.97;;;;;;;14.57;nan;100727.91;5065443;28;20047;-72
2021/05/19 08:03:31;;;;;;;5.15;3.78;;;;;;;14.15;nan;100730.84;5069845;28;20032;-72
2021/05/19 08:05:59;;;;;;;5.93;4.00;;;;;;;14.01;nan;100727.88;5068657;28;20093;-72
2021/05/19 08:08:25;;;;;;;5.28;3.55;;;;;;;13.70;nan;100733.06;5068009;28;20045;-72
2021/05/19 08:10:50;;;;;;;4.43;3.83;;;;;;;13.34;nan;100725.41;5083578;28;20039;-72
2021/05/19 08:13:16;;;;;;;5.07;4.03;;;;;;;13.18;nan;100725.38;5069022;28;20134;-73
2021/05/19 08:15:41;;;;;;;4.63;3.90;;;;;;;13.04;nan;100731.31;5067370;28;20090;-72
2021/05/19 08:18:10;;;;;;;7.53;5.20;;;;;;;13.26;nan;100727.22;5060878;28;20071;-72
2021/05/19 08:20:37;;;;;;;4.78;4.03;;;;;;;13.33;nan;100726.41;5060881;28;20024;-72
2021/05/19 08:23:03;;;;;;;5.15;4.18;;;;;;;13.30;nan;100725.91;5069056;28;20037;-73
2021/05/19 08:25:28;;;;;;;6.25;4.43;;;;;;;13.68;nan;100724.44;5068051;28;20506;-73
2021/05/19 08:27:55;;;;;;;5.72;5.07;;;;;;;14.08;nan;100733.34;5051174;28;20167;-73
2021/05/19 08:30:21;;;;;;;6.05;4.55;;;;;;;14.45;nan;100721.28;5067715;28;20029;-72
2021/05/19 08:32:46;;;;;;;6.82;4.28;;;;;;;14.89;nan;100720.75;5049660;28;20035;-73
2021/05/19 08:35:13;;;;;;;5.45;4.03;;;;;;;14.97;nan;100707.41;5065144;28;20044;-73
2021/05/19 08:37:39;;;;;;;4.90;4.35;;;;;;;15.10;nan;100716.63;5059212;28;20028;-72
2021/05/19 08:40:05;;;;;;;5.28;3.83;;;;;;;15.18;nan;100713.91;5074678;28;20051;-73
2021/05/19 08:42:35;;;;;;;3.88;2.72;;;;;;;16.25;nan;100714.63;5067553;28;20056;-73
2021/05/19 08:45:01;;;;;;;3.88;3.00;;;;;;;16.00;nan;100730.06;5085566;28;20488;-73
2021/05/19 08:47:26;;;;;;;5.85;3.55;;;;;;;16.01;nan;100720.22;5079226;28;20054;-73
2021/05/19 08:49:52;;;;;;;4.00;2.35;;;;;;;16.02;nan;100717.38;5072127;28;20408;-73
2021/05/19 08:52:19;;;;;;;4.50;2.72;;;;;;;17.57;nan;100714.47;5079473;28;20110;-72
2021/05/19 08:54:45;;;;;;;3.78;2.70;;;;;;;17.60;nan;100700.72;5086327;28;20504;-73
2021/05/19 08:57:11;;;;;;;4.38;3.13;;;;;;;17.26;nan;100711.31;5073169;28;20078;-73
2021/05/19 08:59:37;;;;;;;3.30;2.40;;;;;;;17.46;nan;100711.50;5084002;28;20197;-73
2021/05/19 09:02:11;;;;;;;3.38;2.28;;;;;;;18.24;nan;100705.06;5059224;28;20612;-73
2021/05/19 09:04:36;;;;;;;3.90;3.15;;;;;;;19.37;nan;100701.13;5080973;28;20036;-73
2021/05/19 09:07:03;;;;;;;4.20;2.90;;;;;;;19.15;nan;100698.63;5068709;28;20063;-74
2021/05/19 09:09:34;;;;;;;6.28;3.55;;;;;;;18.80;nan;100708.63;5073815;28;20041;-73
2021/05/19 09:12:10;;;;;;;4.47;2.60;;;;;;;17.89;nan;100701.56;5074174;28;20040;-73
2021/05/19 09:14:50;;;;;;;3.70;2.63;;;;;;;17.31;nan;100700.88;5061946;28;20423;-73
2021/05/19 09:17:37;;;;;;;4.20;3.00;;;;;;;16.94;nan;100702.75;5087577;28;20101;-73
2021/05/19 09:20:15;;;;;;;4.40;3.10;;;;;;;16.91;nan;100703.16;5085960;28;20093;-73
2021/05/19 09:22:45;;;;;;;4.68;2.90;;;;;;;16.75;nan;100690.81;5064659;28;20029;-73
2021/05/19 09:25:22;;;;;;;5.23;2.87;;;;;;;17.16;nan;100696.44;5088126;28;20032;-72
2021/05/19 09:27:50;;;;;;;3.42;2.63;;;;;;;16.64;nan;100697.47;5087392;28;20035;-73
2021/05/19 09:30:34;;;;;;;2.97;1.92;;;;;;;17.13;nan;100687.94;5060851;28;20059;-73
2021/05/19 09:33:16;;;;;;;3.50;2.40;;;;;;;17.74;nan;100690.94;5082864;28;20401;-73
2021/05/19 09:35:45;;;;;;;2.28;1.77;;;;;;;18.17;nan;100693.50;5080830;28;20039;-73
2021/05/19 09:38:30;;;;;;;5.00;2.95;;;;;;;18.28;nan;100688.59;5086835;28;20047;-72
2021/05/19 09:41:14;;;;;;;4.40;2.17;;;;;;;18.34;nan;100685.97;5088281;28;20024;-73
2021/05/19 09:43:39;;;;;;;5.22;2.55;;;;;;;18.10;nan;100684.63;5087936;28;20042;-73
2021/05/19 09:46:13;;;;;;;3.40;2.20;;;;;;;17.95;nan;100684.75;5081831;28;20556;-75
2021/05/19 09:48:38;;;;;;;4.05;2.45;;;;;;;17.06;nan;100681.72;5064120;28;20032;-73
2021/05/19 09:51:04;;;;;;;4.45;2.40;;;;;;;16.86;nan;100676.19;5087015;28;20036;-73
2021/05/19 09:53:34;;;;;;;3.58;2.05;;;;;;;16.97;nan;100675.66;5061555;28;20036;-73
2021/05/19 09:55:59;;;;;;;3.58;1.67;;;;;;;17.26;nan;100681.91;5086752;28;20028;-73
2021/05/19 09:58:36;;;;;;;4.00;2.43;;;;;;;17.38;nan;100677.72;5073519;28;20584;-73
2021/05/19 10:01:03;;;;;;;4.25;1.90;;;;;;;17.36;nan;100674.41;5063880;28;20076;-73
2021/05/19 10:03:30;;;;;;;3.85;2.08;;;;;;;17.38;nan;100667.00;5059503;28;20454;-73
2021/05/19 10:06:05;;;;;;;3.45;2.30;;;;;;;17.00;nan;100669.97;5082012;28;20040;-73
2021/05/19 10:08:30;;;;;;;3.90;2.10;;;;;;;16.83;nan;100664.03;5068398;28;20044;-72
2021/05/19 10:11:01;;;;;;;4.30;1.92;;;;;;;17.15;nan;100662.69;5087863;28;20028;-73
2021/05/19 10:13:29;;;;;;;4.00;2.03;;;;;;;17.68;nan;100666.81;5087131;28;20031;-73
2021/05/19 10:15:56;;;;;;;2.88;1.85;;;;;;;17.97;nan;100663.13;5075051;28;20025;-73
2021/05/19 10:18:25;;;;;;;2.05;1.20;;;;;;;18.30;nan;100660.63;5063556;28;20048;-73
2021/05/19 10:20:54;;;;;;;3.30;1.65;;;;;;;18.71;nan;100665.13;5087348;28;20043;-73
2021/05/19 10:23:34;;;;;;;2.17;1.45;;;;;;;18.76;nan;100653.75;5068370;28;20044;-73
2021/05/19 10:26:09;;;;;;;4.80;1.73;;;;;;;18.86;nan;100655.06;5068164;28;20036;-72
2021/05/19 10:28:45;;;;;;;3.60;1.70;;;;;;;18.73;nan;100652.31;5085691;28;20115;-73
2021/05/19 10:31:31;;;;;;;3.22;1.58;;;;;;;18.77;nan;100648.25;5089588;28;20032;-73
2021/05/19 10:34:01;;;;;;;4.00;1.80;;;;;;;18.92;nan;100641.88;5091589;28;20031;-73
2021/05/19 10:36:42;;;;;;;2.20;1.20;;;;;;;18.62;nan;100651.06;5088102;28;20032;-72
2021/05/19 10:39:07;;;;;;;;;;;;;;;18.53;nan;100638.88;5052057;28;20048;-73
2021/05/19 10:41:41;;;;;;;2.60;1.02;;;;;;;18.40;nan;100641.50;5065899;28;20266;-73
2021/05/19 10:44:08;;;;;;;2.53;1.30;;;;;;;18.02;nan;100636.63;5069479;28;20037;-73
2021/05/19 10:46:46;;;;;;;2.63;1.30;;;;;;;17.72;nan;100638.66;5068324;28;20035;-73
2021/05/19 10:49:11;;;;;;;2.13;1.00;;;;;;;17.95;nan;100622.38;5065825;28;20114;-73
2021/05/19 10:51:47;;;;;;;2.53;1.10;;;;;;;18.20;nan;100625.38;5070936;28;20298;-73
2021/05/19 11:00:22;;;;;;;2.80;1.42;;;;;;;18.56;nan;100609.00;5037492;28;20045;-73
2021/05/19 11:02:54;;;;;;;2.00;1.10;;;;;;;18.17;nan;100605.19;5089527;28;20097;-73
2021/05/19 11:05:28;;;;;;;2.33;1.25;;;;;;;18.16;nan;100605.38;5091332;28;20122;-73
2021/05/19 11:10:44;;;;;;;2.65;1.00;;;;;;;18.18;nan;100590.75;5090548;28;20032;-73
2021/05/19 11:13:09;;;;;;;2.97;1.20;;;;;;;18.21;nan;100592.22;5091912;28;20042;-73
2021/05/19 11:15:40;;;;;;;2.38;0.95;;;;;;;18.34;nan;100584.25;5090854;28;20028;-73
2021/05/19 11:20:54;;;;;;;2.63;1.00;;;;;;;18.30;nan;100576.81;5091044;28;20397;-73
2021/05/19 11:23:20;;;;;;;2.75;1.00;;;;;;;18.05;nan;100572.00;5072669;28;20113;-73
2021/05/19 11:25:46;;;;;;;1.67;0.80;;;;;;;18.22;nan;100580.50;5076544;28;20028;-73
2021/05/19 11:28:13;;;;;;;2.30;1.00;;;;;;;18.41;nan;100573.56;5070386;28;20044;-72
2021/05/19 11:30:38;;;;;;;2.88;0.90;;;;;;;17.89;nan;100577.69;5070218;28;20091;-72
2021/05/19 11:33:07;;;;;;;2.00;0.80;;;;;;;17.76;nan;100571.22;5069236;28;20072;-73
2021/05/19 11:35:33;;;;;;;2.22;0.93;;;;;;;18.08;nan;100573.44;5076531;28;20028;-72
2021/05/19 11:38:11;;;;;;;2.05;0.77;;;;;;;18.51;nan;100576.66;5085929;28;20043;-72
2021/05/19 11:40:44;;;;;;;3.05;1.00;;;;;;;18.74;nan;100573.63;5083403;28;20035;-72
2021/05/19 11:43:17;;;;;;;1.55;0.85;;;;;;;18.93;nan;100573.88;5070470;28;20044;-73
2021/05/19 11:45:44;;;;;;;2.25;1.00;;;;;;;18.43;nan;100577.69;5080909;28;20091;-73
2021/05/19 11:48:24;;;;;;;1.73;1.00;;;;;;;18.24;nan;100586.47;5091567;28;20190;-72
2021/05/19 11:50:50;;;;;;;1.95;0.93;;;;;;;17.84;nan;100583.63;5085605;28;20028;-73
2021/05/19 11:53:16;;;;;;;2.58;0.90;;;;;;;17.33;nan;100586.59;5089944;28;20032;-73
2021/05/19 11:55:45;;;;;;;1.67;0.80;;;;;;;17.35;nan;100589.88;5091144;28;20031;-73
2021/05/19 11:58:13;;;;;;;2.15;0.90;;;;;;;17.33;nan;100584.72;5090783;28;20074;-74
2021/05/19 12:00:43;;;;;;;1.60;0.70;;;;;;;17.37;nan;100583.31;5071055;28;20393;-73
2021/05/19 12:03:10;;;;;;;2.42;0.88;;;;;;;17.33;nan;100587.41;5058649;28;20489;-73
2021/05/19 12:05:42;;;;;;;2.38;0.90;;;;;;;17.42;nan;100580.03;5078662;28;20231;-73